sensor_id;sensor_type;location;lat;lon;timestamp;pressure;altitude;pressure_sealevel;temperature;humidity
43071;BME280;36278;47.952;21.714;2023-04-20T00:01:57;100167.56;;;9.83;92.62
43071;BME280;36278;47.952;21.714;2023-04-20T00:04:27;100162.84;;;9.75;92.63
43071;BME280;36278;47.952;21.714;2023-04-20T00:06:53;100157.91;;;9.71;92.67
43071;BME280;36278;47.952;21.714;2023-04-20T00:09:21;100161.41;;;9.71;93.17
43071;BME280;36278;47.952;21.714;2023-04-20T00:11:47;100157.16;;;9.69;93.08
43071;BME280;36278;47.952;21.714;2023-04-20T00:14:14;100167.03;;;9.67;93.46
43071;BME280;36278;47.952;21.714;2023-04-20T00:16:40;100158.69;;;9.60;93.97
43071;BME280;36278;47.952;21.714;2023-04-20T00:19:05;100160.28;;;9.63;93.97
43071;BME280;36278;47.952;21.714;2023-04-20T00:21:32;100158.09;;;9.57;94.40
43071;BME280;36278;47.952;21.714;2023-04-20T00:23:57;100158.94;;;9.57;94.20
43071;BME280;36278;47.952;21.714;2023-04-20T00:26:23;100156.16;;;9.59;94.15
43071;BME280;36278;47.952;21.714;2023-04-20T00:28:50;100161.91;;;9.52;94.36
43071;BME280;36278;47.952;21.714;2023-04-20T00:31:16;100154.44;;;9.46;94.94
43071;BME280;36278;47.952;21.714;2023-04-20T00:33:41;100158.13;;;9.44;95.08
43071;BME280;36278;47.952;21.714;2023-04-20T00:36:07;100155.63;;;9.42;95.15
43071;BME280;36278;47.952;21.714;2023-04-20T00:38:32;100143.47;;;9.40;95.50
43071;BME280;36278;47.952;21.714;2023-04-20T00:40:58;100156.69;;;9.40;95.56
43071;BME280;36278;47.952;21.714;2023-04-20T00:43:23;100147.06;;;9.39;95.36
43071;BME280;36278;47.952;21.714;2023-04-20T00:45:49;100158.81;;;9.35;95.99
43071;BME280;36278;47.952;21.714;2023-04-20T00:48:16;100152.19;;;9.29;96.08
43071;BME280;36278;47.952;21.714;2023-04-20T00:50:42;100148.81;;;9.27;96.44
43071;BME280;36278;47.952;21.714;2023-04-20T00:53:07;100160.44;;;9.24;96.75
43071;BME280;36278;47.952;21.714;2023-04-20T00:55:36;100154.63;;;9.19;97.13
43071;BME280;36278;47.952;21.714;2023-04-20T00:58:01;100153.59;;;9.22;97.01
43071;BME280;36278;47.952;21.714;2023-04-20T01:00:27;100153.91;;;9.17;97.30
43071;BME280;36278;47.952;21.714;2023-04-20T01:02:53;100150.44;;;9.17;97.45
43071;BME280;36278;47.952;21.714;2023-04-20T01:05:19;100145.97;;;9.17;96.94
43071;BME280;36278;47.952;21.714;2023-04-20T01:07:44;100153.81;;;9.19;97.41
43071;BME280;36278;47.952;21.714;2023-04-20T01:10:10;100145.38;;;9.14;97.47
43071;BME280;36278;47.952;21.714;2023-04-20T01:12:36;100150.88;;;9.11;97.47
43071;BME280;36278;47.952;21.714;2023-04-20T01:15:05;100147.25;;;9.12;97.12
43071;BME280;36278;47.952;21.714;2023-04-20T01:17:32;100155.94;;;9.14;97.23
43071;BME280;36278;47.952;21.714;2023-04-20T01:19:58;100150.97;;;9.09;97.20
43071;BME280;36278;47.952;21.714;2023-04-20T01:22:24;100154.81;;;9.05;97.06
43071;BME280;36278;47.952;21.714;2023-04-20T01:24:50;100148.78;;;9.03;97.29
43071;BME280;36278;47.952;21.714;2023-04-20T01:27:15;100146.97;;;9.04;97.68
43071;BME280;36278;47.952;21.714;2023-04-20T01:29:42;100155.44;;;9.09;96.76
43071;BME280;36278;47.952;21.714;2023-04-20T01:32:07;100149.63;;;9.04;97.78
43071;BME280;36278;47.952;21.714;2023-04-20T01:34:33;100146.13;;;9.03;98.21
43071;BME280;36278;47.952;21.714;2023-04-20T01:36:58;100150.56;;;9.03;98.10
43071;BME280;36278;47.952;21.714;2023-04-20T01:39:24;100144.97;;;9.07;97.92
43071;BME280;36278;47.952;21.714;2023-04-20T01:41:50;100145.09;;;9.06;97.85
43071;BME280;36278;47.952;21.714;2023-04-20T01:44:15;100150.25;;;9.07;97.86
43071;BME280;36278;47.952;21.714;2023-04-20T01:46:41;100153.00;;;9.06;97.77
43071;BME280;36278;47.952;21.714;2023-04-20T01:49:07;100153.22;;;9.03;98.87
43071;BME280;36278;47.952;21.714;2023-04-20T01:51:33;100152.91;;;9.07;98.22
43071;BME280;36278;47.952;21.714;2023-04-20T01:53:59;100152.25;;;9.04;98.42
43071;BME280;36278;47.952;21.714;2023-04-20T01:56:25;100147.38;;;9.10;98.24
43071;BME280;36278;47.952;21.714;2023-04-20T01:58:51;100149.31;;;9.08;97.88
43071;BME280;36278;47.952;21.714;2023-04-20T02:01:16;100147.38;;;9.10;97.73
43071;BME280;36278;47.952;21.714;2023-04-20T02:03:42;100149.41;;;9.07;97.80
43071;BME280;36278;47.952;21.714;2023-04-20T02:06:07;100143.06;;;9.09;97.57
43071;BME280;36278;47.952;21.714;2023-04-20T02:08:33;100149.31;;;9.08;97.91
43071;BME280;36278;47.952;21.714;2023-04-20T02:10:58;100148.47;;;9.08;97.96
43071;BME280;36278;47.952;21.714;2023-04-20T02:13:24;100142.66;;;9.03;98.18
43071;BME280;36278;47.952;21.714;2023-04-20T02:15:50;100144.56;;;9.01;98.09
43071;BME280;36278;47.952;21.714;2023-04-20T02:18:15;100142.16;;;8.97;98.61
43071;BME280;36278;47.952;21.714;2023-04-20T02:20:44;100146.88;;;9.05;97.90
43071;BME280;36278;47.952;21.714;2023-04-20T02:23:10;100150.38;;;9.06;97.87
43071;BME280;36278;47.952;21.714;2023-04-20T02:25:36;100145.41;;;9.01;98.30
43071;BME280;36278;47.952;21.714;2023-04-20T02:28:01;100147.31;;;8.99;98.03
43071;BME280;36278;47.952;21.714;2023-04-20T02:30:27;100135.28;;;8.95;98.72
43071;BME280;36278;47.952;21.714;2023-04-20T02:32:52;100140.84;;;9.03;98.22
43071;BME280;36278;47.952;21.714;2023-04-20T02:35:18;100143.94;;;8.97;98.28
43071;BME280;36278;47.952;21.714;2023-04-20T02:37:44;100146.38;;;9.00;98.66
43071;BME280;36278;47.952;21.714;2023-04-20T02:40:11;100140.34;;;8.98;98.17
43071;BME280;36278;47.952;21.714;2023-04-20T02:42:36;100134.34;;;8.96;98.40
43071;BME280;36278;47.952;21.714;2023-04-20T02:45:02;100143.59;;;9.02;98.12
43071;BME280;36278;47.952;21.714;2023-04-20T02:47:28;100140.97;;;9.02;98.48
43071;BME280;36278;47.952;21.714;2023-04-20T02:49:54;100141.91;;;9.01;98.40
43071;BME280;36278;47.952;21.714;2023-04-20T02:52:19;100134.13;;;8.99;97.96
43071;BME280;36278;47.952;21.714;2023-04-20T02:54:45;100130.22;;;8.92;98.82
43071;BME280;36278;47.952;21.714;2023-04-20T02:57:10;100138.88;;;8.94;98.59
43071;BME280;36278;47.952;21.714;2023-04-20T02:59:36;100135.06;;;8.98;98.30
43071;BME280;36278;47.952;21.714;2023-04-20T03:02:02;100136.22;;;8.94;98.41
43071;BME280;36278;47.952;21.714;2023-04-20T03:04:27;100140.91;;;8.90;99.33
43071;BME280;36278;47.952;21.714;2023-04-20T03:06:55;100133.41;;;8.84;99.26
43071;BME280;36278;47.952;21.714;2023-04-20T03:09:22;100137.97;;;8.82;99.84
43071;BME280;36278;47.952;21.714;2023-04-20T03:11:48;100135.53;;;8.79;99.27
43071;BME280;36278;47.952;21.714;2023-04-20T03:14:13;100137.72;;;8.85;99.53
43071;BME280;36278;47.952;21.714;2023-04-20T03:16:39;100137.63;;;8.87;99.01
43071;BME280;36278;47.952;21.714;2023-04-20T03:19:05;100141.03;;;8.89;98.64
43071;BME280;36278;47.952;21.714;2023-04-20T03:21:30;100137.97;;;8.82;99.19
43071;BME280;36278;47.952;21.714;2023-04-20T03:23:57;100145.16;;;8.80;99.67
43071;BME280;36278;47.952;21.714;2023-04-20T03:26:23;100142.84;;;8.76;99.65
43071;BME280;36278;47.952;21.714;2023-04-20T03:28:49;100147.28;;;8.75;99.80
43071;BME280;36278;47.952;21.714;2023-04-20T03:31:15;100149.19;;;8.73;100.00
43071;BME280;36278;47.952;21.714;2023-04-20T03:33:40;100148.13;;;8.76;99.59
43071;BME280;36278;47.952;21.714;2023-04-20T03:36:06;100147.81;;;8.80;99.45
43071;BME280;36278;47.952;21.714;2023-04-20T03:38:31;100146.84;;;8.81;99.60
43071;BME280;36278;47.952;21.714;2023-04-20T03:40:57;100148.84;;;8.78;98.97
43071;BME280;36278;47.952;21.714;2023-04-20T03:43:22;100156.25;;;8.73;100.00
43071;BME280;36278;47.952;21.714;2023-04-20T03:45:48;100150.03;;;8.74;99.93
43071;BME280;36278;47.952;21.714;2023-04-20T03:48:13;100154.59;;;8.72;100.00
43071;BME280;36278;47.952;21.714;2023-04-20T03:50:39;100160.91;;;8.69;100.00
43071;BME280;36278;47.952;21.714;2023-04-20T03:53:05;100162.94;;;8.65;100.00
43071;BME280;36278;47.952;21.714;2023-04-20T03:55:30;100158.69;;;8.63;100.00
43071;BME280;36278;47.952;21.714;2023-04-20T03:57:55;100162.81;;;8.67;100.00
43071;BME280;36278;47.952;21.714;2023-04-20T04:00:21;100157.53;;;8.67;99.79
43071;BME280;36278;47.952;21.714;2023-04-20T04:02:46;100161.31;;;8.63;100.00
43071;BME280;36278;47.952;21.714;2023-04-20T04:05:12;100161.31;;;8.63;100.00
43071;BME280;36278;47.952;21.714;2023-04-20T04:07:37;100162.50;;;8.59;100.00
43071;BME280;36278;47.952;21.714;2023-04-20T04:10:03;100168.75;;;8.58;100.00
43071;BME280;36278;47.952;21.714;2023-04-20T04:12:30;100171.28;;;8.59;100.00
43071;BME280;36278;47.952;21.714;2023-04-20T04:14:55;100170.53;;;8.57;100.00
43071;BME280;36278;47.952;21.714;2023-04-20T04:17:21;100171.50;;;8.56;100.00
43071;BME280;36278;47.952;21.714;2023-04-20T04:19:46;100168.31;;;8.64;100.00
43071;BME280;36278;47.952;21.714;2023-04-20T04:22:12;100169.06;;;8.66;100.00
43071;BME280;36278;47.952;21.714;2023-04-20T04:24:37;100175.91;;;8.68;100.00
43071;BME280;36278;47.952;21.714;2023-04-20T04:27:03;100177.94;;;8.65;100.00
43071;BME280;36278;47.952;21.714;2023-04-20T04:29:32;100171.47;;;8.69;99.78
43071;BME280;36278;47.952;21.714;2023-04-20T04:32:03;100173.25;;;8.81;99.64
43071;BME280;36278;47.952;21.714;2023-04-20T04:34:30;100170.72;;;8.80;98.79
43071;BME280;36278;47.952;21.714;2023-04-20T04:36:55;100176.31;;;8.88;98.79
43071;BME280;36278;47.952;21.714;2023-04-20T04:39:22;100175.34;;;8.89;98.20
43071;BME280;36278;47.952;21.714;2023-04-20T04:41:47;100173.31;;;8.92;98.02
43071;BME280;36278;47.952;21.714;2023-04-20T04:44:13;100176.28;;;9.01;98.18
43071;BME280;36278;47.952;21.714;2023-04-20T04:46:39;100185.56;;;9.06;98.33
43071;BME280;36278;47.952;21.714;2023-04-20T04:49:05;100179.09;;;9.10;97.23
43071;BME280;36278;47.952;21.714;2023-04-20T04:51:32;100183.94;;;9.16;96.99
43071;BME280;36278;47.952;21.714;2023-04-20T04:53:57;100191.00;;;9.29;96.66
43071;BME280;36278;47.952;21.714;2023-04-20T04:56:23;100193.00;;;9.25;96.67
43071;BME280;36278;47.952;21.714;2023-04-20T04:58:49;100192.13;;;9.37;95.73
43071;BME280;36278;47.952;21.714;2023-04-20T05:01:14;100197.91;;;9.42;96.03
43071;BME280;36278;47.952;21.714;2023-04-20T05:03:40;100197.31;;;9.39;95.74
43071;BME280;36278;47.952;21.714;2023-04-20T05:06:05;100197.59;;;9.47;95.62
43071;BME280;36278;47.952;21.714;2023-04-20T05:08:32;100202.59;;;9.63;94.00
43071;BME280;36278;47.952;21.714;2023-04-20T05:10:57;100206.69;;;9.67;94.37
43071;BME280;36278;47.952;21.714;2023-04-20T05:13:23;100203.38;;;9.76;93.68
43071;BME280;36278;47.952;21.714;2023-04-20T05:15:48;100195.81;;;9.82;94.24
43071;BME280;36278;47.952;21.714;2023-04-20T05:18:14;100210.28;;;9.90;93.22
43071;BME280;36278;47.952;21.714;2023-04-20T05:20:40;100196.72;;;9.94;92.98
43071;BME280;36278;47.952;21.714;2023-04-20T05:23:05;100188.53;;;9.97;91.98
43071;BME280;36278;47.952;21.714;2023-04-20T05:25:31;100202.81;;;10.19;90.92
43071;BME280;36278;47.952;21.714;2023-04-20T05:27:57;100201.66;;;10.23;91.08
43071;BME280;36278;47.952;21.714;2023-04-20T05:30:22;100201.06;;;10.42;90.35
43071;BME280;36278;47.952;21.714;2023-04-20T05:32:48;100198.47;;;10.53;89.60
43071;BME280;36278;47.952;21.714;2023-04-20T05:35:14;100204.00;;;10.61;89.52
43071;BME280;36278;47.952;21.714;2023-04-20T05:37:40;100201.59;;;10.69;88.84
43071;BME280;36278;47.952;21.714;2023-04-20T05:40:06;100212.56;;;10.76;88.79
43071;BME280;36278;47.952;21.714;2023-04-20T05:42:32;100214.97;;;10.90;88.98
43071;BME280;36278;47.952;21.714;2023-04-20T05:44:57;100214.72;;;11.04;86.53
43071;BME280;36278;47.952;21.714;2023-04-20T05:47:23;100210.84;;;11.19;86.15
43071;BME280;36278;47.952;21.714;2023-04-20T05:49:48;100224.69;;;11.34;86.52
43071;BME280;36278;47.952;21.714;2023-04-20T05:52:13;100207.81;;;11.35;85.30
43071;BME280;36278;47.952;21.714;2023-04-20T05:54:39;100222.09;;;11.55;84.16
43071;BME280;36278;47.952;21.714;2023-04-20T05:57:04;100221.03;;;11.58;83.97
43071;BME280;36278;47.952;21.714;2023-04-20T05:59:30;100213.38;;;11.75;83.39
43071;BME280;36278;47.952;21.714;2023-04-20T06:01:56;100222.38;;;11.95;81.82
43071;BME280;36278;47.952;21.714;2023-04-20T06:04:21;100220.56;;;11.96;81.99
43071;BME280;36278;47.952;21.714;2023-04-20T06:06:47;100225.28;;;12.13;81.45
43071;BME280;36278;47.952;21.714;2023-04-20T06:09:12;100223.38;;;12.15;80.85
43071;BME280;36278;47.952;21.714;2023-04-20T06:11:38;100225.81;;;12.28;79.95
43071;BME280;36278;47.952;21.714;2023-04-20T06:14:04;100223.56;;;12.44;79.00
43071;BME280;36278;47.952;21.714;2023-04-20T06:16:30;100226.41;;;12.52;78.94
43071;BME280;36278;47.952;21.714;2023-04-20T06:18:55;100223.56;;;12.65;78.22
43071;BME280;36278;47.952;21.714;2023-04-20T06:21:21;100228.59;;;12.68;78.45
43071;BME280;36278;47.952;21.714;2023-04-20T06:23:49;100226.91;;;12.67;77.35
43071;BME280;36278;47.952;21.714;2023-04-20T06:26:14;100228.91;;;12.75;77.43
43071;BME280;36278;47.952;21.714;2023-04-20T06:28:40;100224.31;;;12.77;77.46
43071;BME280;36278;47.952;21.714;2023-04-20T06:31:07;100226.91;;;12.67;77.15
43071;BME280;36278;47.952;21.714;2023-04-20T06:33:32;100236.06;;;12.74;77.42
43071;BME280;36278;47.952;21.714;2023-04-20T06:35:58;100225.56;;;13.03;76.67
43071;BME280;36278;47.952;21.714;2023-04-20T06:38:23;100234.78;;;12.99;75.48
43071;BME280;36278;47.952;21.714;2023-04-20T06:40:51;100232.56;;;13.04;76.23
43071;BME280;36278;47.952;21.714;2023-04-20T06:43:17;100235.47;;;13.32;75.27
43071;BME280;36278;47.952;21.714;2023-04-20T06:45:43;100225.31;;;13.16;74.95
43071;BME280;36278;47.952;21.714;2023-04-20T06:48:08;100228.59;;;13.20;73.96
43071;BME280;36278;47.952;21.714;2023-04-20T06:50:34;100230.69;;;13.26;74.15
43071;BME280;36278;47.952;21.714;2023-04-20T06:53:02;100234.66;;;13.41;73.14
43071;BME280;36278;47.952;21.714;2023-04-20T06:55:28;100220.44;;;13.61;71.42
43071;BME280;36278;47.952;21.714;2023-04-20T06:57:54;100234.59;;;13.71;71.73
43071;BME280;36278;47.952;21.714;2023-04-20T07:00:19;100229.97;;;13.73;71.73
43071;BME280;36278;47.952;21.714;2023-04-20T07:02:47;100231.09;;;13.90;70.47
43071;BME280;36278;47.952;21.714;2023-04-20T07:05:14;100221.13;;;13.92;69.52
43071;BME280;36278;47.952;21.714;2023-04-20T07:07:40;100233.34;;;13.95;70.63
43071;BME280;36278;47.952;21.714;2023-04-20T07:10:07;100220.00;;;13.75;70.58
43071;BME280;36278;47.952;21.714;2023-04-20T07:12:34;100228.28;;;13.82;70.76
43071;BME280;36278;47.952;21.714;2023-04-20T07:15:05;100223.53;;;13.86;70.48
43071;BME280;36278;47.952;21.714;2023-04-20T07:17:31;100225.22;;;14.06;70.01
43071;BME280;36278;47.952;21.714;2023-04-20T07:19:57;100223.09;;;14.29;70.68
43071;BME280;36278;47.952;21.714;2023-04-20T07:22:30;100220.00;;;14.43;68.57
43071;BME280;36278;47.952;21.714;2023-04-20T07:24:56;100225.00;;;14.66;66.36
43071;BME280;36278;47.952;21.714;2023-04-20T07:27:22;100219.38;;;14.78;65.39
43071;BME280;36278;47.952;21.714;2023-04-20T07:29:48;100233.38;;;14.80;67.07
43071;BME280;36278;47.952;21.714;2023-04-20T07:32:14;100227.78;;;14.83;67.48
43071;BME280;36278;47.952;21.714;2023-04-20T07:34:39;100235.28;;;14.98;66.28
43071;BME280;36278;47.952;21.714;2023-04-20T07:37:05;100228.53;;;15.03;65.45
43071;BME280;36278;47.952;21.714;2023-04-20T07:39:31;100235.28;;;15.07;65.31
43071;BME280;36278;47.952;21.714;2023-04-20T07:41:56;100228.16;;;15.26;63.84
43071;BME280;36278;47.952;21.714;2023-04-20T07:44:22;100236.78;;;15.37;63.96
43071;BME280;36278;47.952;21.714;2023-04-20T07:46:47;100238.41;;;15.21;64.60
43071;BME280;36278;47.952;21.714;2023-04-20T07:49:14;100236.00;;;14.90;65.01
43071;BME280;36278;47.952;21.714;2023-04-20T07:51:40;100240.66;;;14.88;65.40
43071;BME280;36278;47.952;21.714;2023-04-20T07:54:05;100233.66;;;15.24;64.20
43071;BME280;36278;47.952;21.714;2023-04-20T07:56:32;100232.78;;;15.51;62.30
43071;BME280;36278;47.952;21.714;2023-04-20T07:58:58;100237.97;;;15.53;63.41
43071;BME280;36278;47.952;21.714;2023-04-20T08:01:23;100235.13;;;15.09;63.43
43071;BME280;36278;47.952;21.714;2023-04-20T08:03:50;100230.38;;;15.30;63.65
43071;BME280;36278;47.952;21.714;2023-04-20T08:06:16;100232.66;;;15.25;62.70
43071;BME280;36278;47.952;21.714;2023-04-20T08:08:42;100223.97;;;15.13;64.02
43071;BME280;36278;47.952;21.714;2023-04-20T08:11:07;100223.78;;;15.52;62.97
43071;BME280;36278;47.952;21.714;2023-04-20T08:13:34;100222.91;;;15.79;61.72
43071;BME280;36278;47.952;21.714;2023-04-20T08:16:00;100226.13;;;15.83;61.25
43071;BME280;36278;47.952;21.714;2023-04-20T08:18:26;100226.75;;;15.94;61.79
43071;BME280;36278;47.952;21.714;2023-04-20T08:20:52;100229.50;;;15.85;62.17
43071;BME280;36278;47.952;21.714;2023-04-20T08:23:17;100218.88;;;16.11;60.85
43071;BME280;36278;47.952;21.714;2023-04-20T08:25:43;100218.16;;;16.26;61.86
43071;BME280;36278;47.952;21.714;2023-04-20T08:28:10;100226.72;;;16.12;61.54
43071;BME280;36278;47.952;21.714;2023-04-20T08:30:38;100218.16;;;16.26;60.90
43071;BME280;36278;47.952;21.714;2023-04-20T08:33:05;100217.66;;;16.23;61.36
43071;BME280;36278;47.952;21.714;2023-04-20T08:35:30;100214.31;;;16.47;60.74
43071;BME280;36278;47.952;21.714;2023-04-20T08:37:56;100218.19;;;16.70;59.15
43071;BME280;36278;47.952;21.714;2023-04-20T08:40:21;100227.66;;;16.91;59.31
43071;BME280;36278;47.952;21.714;2023-04-20T08:42:48;100228.94;;;16.78;58.37
43071;BME280;36278;47.952;21.714;2023-04-20T08:45:14;100219.47;;;16.66;59.71
43071;BME280;36278;47.952;21.714;2023-04-20T08:47:40;100218.03;;;16.72;59.55
43071;BME280;36278;47.952;21.714;2023-04-20T08:50:07;100231.13;;;16.83;58.44
43071;BME280;36278;47.952;21.714;2023-04-20T08:52:33;100218.78;;;16.64;58.45
43071;BME280;36278;47.952;21.714;2023-04-20T08:55:00;100210.44;;;16.93;58.53
43071;BME280;36278;47.952;21.714;2023-04-20T08:57:25;100213.06;;;17.11;57.87
43071;BME280;36278;47.952;21.714;2023-04-20T08:59:51;100204.72;;;17.22;57.50
43071;BME280;36278;47.952;21.714;2023-04-20T09:02:17;100206.25;;;17.33;57.21
43071;BME280;36278;47.952;21.714;2023-04-20T09:04:43;100204.31;;;17.51;56.12
43071;BME280;36278;47.952;21.714;2023-04-20T09:07:22;100201.66;;;17.59;56.03
43071;BME280;36278;47.952;21.714;2023-04-20T09:09:58;100198.19;;;17.75;55.74
43071;BME280;36278;47.952;21.714;2023-04-20T09:12:26;100210.53;;;17.52;55.81
43071;BME280;36278;47.952;21.714;2023-04-20T09:14:52;100203.00;;;17.63;56.90
43071;BME280;36278;47.952;21.714;2023-04-20T09:17:30;100214.50;;;17.48;56.81
43071;BME280;36278;47.952;21.714;2023-04-20T09:19:57;100220.22;;;17.53;56.73
43071;BME280;36278;47.952;21.714;2023-04-20T09:22:33;100222.22;;;17.59;56.07
43071;BME280;36278;47.952;21.714;2023-04-20T09:25:14;100208.69;;;17.60;56.67
43071;BME280;36278;47.952;21.714;2023-04-20T09:27:40;100215.38;;;17.56;56.22
43071;BME280;36278;47.952;21.714;2023-04-20T09:30:06;100203.06;;;17.96;56.98
43071;BME280;36278;47.952;21.714;2023-04-20T09:32:32;100200.22;;;18.14;55.63
43071;BME280;36278;47.952;21.714;2023-04-20T09:34:58;100196.19;;;18.51;53.64
43071;BME280;36278;47.952;21.714;2023-04-20T09:37:25;100190.63;;;18.60;52.68
43071;BME280;36278;47.952;21.714;2023-04-20T09:39:54;100186.41;;;18.90;52.87
43071;BME280;36278;47.952;21.714;2023-04-20T09:42:23;100200.00;;;18.72;53.16
43071;BME280;36278;47.952;21.714;2023-04-20T09:44:51;100185.31;;;19.08;51.47
43071;BME280;36278;47.952;21.714;2023-04-20T09:47:17;100190.66;;;19.16;51.67
43071;BME280;36278;47.952;21.714;2023-04-20T09:49:46;100171.47;;;19.27;52.29
43071;BME280;36278;47.952;21.714;2023-04-20T09:52:16;100184.06;;;19.26;52.11
43071;BME280;36278;47.952;21.714;2023-04-20T09:54:45;100195.69;;;19.11;52.71
43071;BME280;36278;47.952;21.714;2023-04-20T09:57:12;100185.44;;;19.22;50.76
43071;BME280;36278;47.952;21.714;2023-04-20T09:59:41;100193.84;;;19.11;52.87
43071;BME280;36278;47.952;21.714;2023-04-20T10:02:10;100185.69;;;19.36;51.10
43071;BME280;36278;47.952;21.714;2023-04-20T10:04:38;100181.00;;;19.29;51.32
43071;BME280;36278;47.952;21.714;2023-04-20T10:07:03;100199.59;;;19.00;51.30
43071;BME280;36278;47.952;21.714;2023-04-20T10:09:31;100181.59;;;19.17;52.32
43071;BME280;36278;47.952;21.714;2023-04-20T10:12:08;100183.81;;;19.36;51.34
43071;BME280;36278;47.952;21.714;2023-04-20T10:14:34;100178.16;;;19.62;50.12
43071;BME280;36278;47.952;21.714;2023-04-20T10:19:43;100178.47;;;19.90;49.33
43071;BME280;36278;47.952;21.714;2023-04-20T10:22:11;100185.22;;;19.86;49.65
43071;BME280;36278;47.952;21.714;2023-04-20T10:24:37;100179.50;;;20.12;48.27
43071;BME280;36278;47.952;21.714;2023-04-20T10:27:25;100177.97;;;20.09;48.01
43071;BME280;36278;47.952;21.714;2023-04-20T10:29:49;100174.47;;;19.63;49.64
43071;BME280;36278;47.952;21.714;2023-04-20T10:32:26;100160.56;;;19.82;49.19
43071;BME280;36278;47.952;21.714;2023-04-20T10:35:09;100179.91;;;20.01;48.31
43071;BME280;36278;47.952;21.714;2023-04-20T10:37:35;100180.66;;;20.09;48.23
43071;BME280;36278;47.952;21.714;2023-04-20T10:40:12;100172.78;;;19.85;48.62
43071;BME280;36278;47.952;21.714;2023-04-20T10:42:44;100174.63;;;20.07;47.56
43071;BME280;36278;47.952;21.714;2023-04-20T10:45:10;100167.94;;;20.41;48.08
43071;BME280;36278;47.952;21.714;2023-04-20T10:47:37;100177.75;;;20.34;48.44
43071;BME280;36278;47.952;21.714;2023-04-20T10:50:13;100180.47;;;19.96;47.94
43071;BME280;36278;47.952;21.714;2023-04-20T10:52:41;100168.59;;;19.28;49.33
43071;BME280;36278;47.952;21.714;2023-04-20T10:55:21;100180.41;;;19.81;48.85
43071;BME280;36278;47.952;21.714;2023-04-20T10:57:48;100168.69;;;19.97;48.17
43071;BME280;36278;47.952;21.714;2023-04-20T11:00:15;100163.16;;;20.13;47.69
43071;BME280;36278;47.952;21.714;2023-04-20T11:02:48;100165.84;;;20.66;46.55
43071;BME280;36278;47.952;21.714;2023-04-20T11:05:15;100166.16;;;20.71;45.56
43071;BME280;36278;47.952;21.714;2023-04-20T11:10:18;100165.78;;;20.22;48.46
43071;BME280;36278;47.952;21.714;2023-04-20T11:12:44;100167.34;;;20.54;47.38
43071;BME280;36278;47.952;21.714;2023-04-20T11:15:10;100152.28;;;21.18;45.71
43071;BME280;36278;47.952;21.714;2023-04-20T11:17:36;100159.38;;;21.41;44.65
43071;BME280;36278;47.952;21.714;2023-04-20T11:20:13;100152.13;;;21.77;44.27
43071;BME280;36278;47.952;21.714;2023-04-20T11:22:42;100158.44;;;22.34;43.36
43071;BME280;36278;47.952;21.714;2023-04-20T11:25:09;100151.69;;;22.23;43.58
43071;BME280;36278;47.952;21.714;2023-04-20T11:27:40;100146.56;;;22.56;42.03
43071;BME280;36278;47.952;21.714;2023-04-20T11:30:07;100153.31;;;22.74;41.77
43071;BME280;36278;47.952;21.714;2023-04-20T11:32:34;100143.88;;;22.91;40.85
43071;BME280;36278;47.952;21.714;2023-04-20T11:35:03;100150.00;;;22.44;42.60
43071;BME280;36278;47.952;21.714;2023-04-20T11:37:44;100138.63;;;23.37;40.84
43071;BME280;36278;47.952;21.714;2023-04-20T11:40:11;100142.09;;;23.79;39.54
43071;BME280;36278;47.952;21.714;2023-04-20T11:42:37;100143.84;;;23.52;39.75
43071;BME280;36278;47.952;21.714;2023-04-20T11:45:04;100135.06;;;22.20;41.38
43071;BME280;36278;47.952;21.714;2023-04-20T11:47:31;100142.91;;;22.77;40.92
43071;BME280;36278;47.952;21.714;2023-04-20T11:49:56;100130.19;;;23.60;40.72
43071;BME280;36278;47.952;21.714;2023-04-20T11:52:22;100136.47;;;24.40;38.76
43071;BME280;36278;47.952;21.714;2023-04-20T11:54:47;100131.44;;;23.64;39.14
43071;BME280;36278;47.952;21.714;2023-04-20T11:57:13;100134.41;;;24.36;38.46
43071;BME280;36278;47.952;21.714;2023-04-20T11:59:39;100136.66;;;24.19;38.27
43071;BME280;36278;47.952;21.714;2023-04-20T12:02:08;100131.78;;;24.87;37.20
43071;BME280;36278;47.952;21.714;2023-04-20T12:04:33;100127.47;;;24.66;38.48
43071;BME280;36278;47.952;21.714;2023-04-20T12:06:59;100133.31;;;24.63;37.33
43071;BME280;36278;47.952;21.714;2023-04-20T12:09:27;100133.66;;;25.76;36.67
43071;BME280;36278;47.952;21.714;2023-04-20T12:11:54;100122.22;;;25.74;37.54
43071;BME280;36278;47.952;21.714;2023-04-20T12:14:22;100129.59;;;24.18;38.94
43071;BME280;36278;47.952;21.714;2023-04-20T12:16:47;100133.22;;;23.44;39.82
43071;BME280;36278;47.952;21.714;2023-04-20T12:19:13;100128.56;;;22.35;41.40
43071;BME280;36278;47.952;21.714;2023-04-20T12:21:38;100118.56;;;24.13;39.26
43071;BME280;36278;47.952;21.714;2023-04-20T12:24:04;100111.28;;;24.40;39.39
43071;BME280;36278;47.952;21.714;2023-04-20T12:26:30;100124.59;;;24.54;38.61
43071;BME280;36278;47.952;21.714;2023-04-20T12:28:56;100119.13;;;23.48;40.42
43071;BME280;36278;47.952;21.714;2023-04-20T12:31:22;100117.34;;;22.38;42.32
43071;BME280;36278;47.952;21.714;2023-04-20T12:33:49;100127.56;;;21.72;43.83
43071;BME280;36278;47.952;21.714;2023-04-20T12:36:14;100121.78;;;21.33;45.54
43071;BME280;36278;47.952;21.714;2023-04-20T12:38:40;100125.06;;;21.28;46.01
43071;BME280;36278;47.952;21.714;2023-04-20T12:41:05;100130.78;;;21.25;45.00
43071;BME280;36278;47.952;21.714;2023-04-20T12:43:31;100126.31;;;20.81;49.54
43071;BME280;36278;47.952;21.714;2023-04-20T12:45:57;100126.72;;;20.26;50.79